sensor_id;sensor_type;location;lat;lon;timestamp;pressure;altitude;pressure_sealevel;temperature;humidity
23176;BME280;19910;42.652;23.332;2023-04-26T00:01:17;93711.16;;;8.62;100.00
23176;BME280;19910;42.652;23.332;2023-04-26T00:03:44;93704.75;;;8.54;100.00
23176;BME280;19910;42.652;23.332;2023-04-26T00:06:11;93705.41;;;8.51;100.00
23176;BME280;19910;42.652;23.332;2023-04-26T00:08:39;93702.38;;;8.40;100.00
23176;BME280;19910;42.652;23.332;2023-04-26T00:11:06;93679.63;;;8.17;100.00
23176;BME280;19910;42.652;23.332;2023-04-26T00:13:34;93676.91;;;8.05;100.00
23176;BME280;19910;42.652;23.332;2023-04-26T00:16:03;93682.78;;;8.19;100.00
23176;BME280;19910;42.652;23.332;2023-04-26T00:18:30;93680.94;;;8.11;100.00
23176;BME280;19910;42.652;23.332;2023-04-26T00:20:57;93687.00;;;8.08;100.00
23176;BME280;19910;42.652;23.332;2023-04-26T00:23:24;93681.63;;;8.20;100.00
23176;BME280;19910;42.652;23.332;2023-04-26T00:25:51;93679.16;;;8.15;100.00
23176;BME280;19910;42.652;23.332;2023-04-26T00:28:17;93685.81;;;8.17;100.00
23176;BME280;19910;42.652;23.332;2023-04-26T00:30:46;93677.34;;;8.07;100.00
23176;BME280;19910;42.652;23.332;2023-04-26T00:33:13;93681.06;;;8.14;100.00
23176;BME280;19910;42.652;23.332;2023-04-26T00:35:40;93671.41;;;8.13;100.00
23176;BME280;19910;42.652;23.332;2023-04-26T00:38:07;93671.06;;;8.03;100.00
23176;BME280;19910;42.652;23.332;2023-04-26T00:40:34;93672.19;;;8.02;100.00
23176;BME280;19910;42.652;23.332;2023-04-26T00:43:02;93669.03;;;8.00;100.00
23176;BME280;19910;42.652;23.332;2023-04-26T00:45:29;93668.09;;;7.96;100.00
23176;BME280;19910;42.652;23.332;2023-04-26T00:47:59;93665.75;;;7.94;100.00
23176;BME280;19910;42.652;23.332;2023-04-26T00:50:28;93667.22;;;7.92;100.00
23176;BME280;19910;42.652;23.332;2023-04-26T00:52:56;93662.16;;;7.90;100.00
23176;BME280;19910;42.652;23.332;2023-04-26T00:55:23;93664.72;;;7.87;100.00
23176;BME280;19910;42.652;23.332;2023-04-26T00:57:51;93668.41;;;7.82;100.00
23176;BME280;19910;42.652;23.332;2023-04-26T01:00:19;93667.63;;;7.81;100.00
23176;BME280;19910;42.652;23.332;2023-04-26T01:02:47;93673.03;;;7.81;100.00
23176;BME280;19910;42.652;23.332;2023-04-26T01:05:15;93670.78;;;7.83;100.00
23176;BME280;19910;42.652;23.332;2023-04-26T01:07:42;93677.06;;;7.75;100.00
23176;BME280;19910;42.652;23.332;2023-04-26T01:10:10;93676.13;;;7.59;100.00
23176;BME280;19910;42.652;23.332;2023-04-26T01:12:37;93675.97;;;7.56;100.00
23176;BME280;19910;42.652;23.332;2023-04-26T01:15:05;93683.75;;;7.57;100.00
23176;BME280;19910;42.652;23.332;2023-04-26T01:17:34;93681.63;;;7.63;100.00
23176;BME280;19910;42.652;23.332;2023-04-26T01:20:02;93674.97;;;7.48;100.00
23176;BME280;19910;42.652;23.332;2023-04-26T01:22:33;93666.75;;;7.44;100.00
23176;BME280;19910;42.652;23.332;2023-04-26T01:25:01;93656.50;;;7.38;100.00
23176;BME280;19910;42.652;23.332;2023-04-26T01:27:30;93656.94;;;7.40;100.00
23176;BME280;19910;42.652;23.332;2023-04-26T01:29:56;93651.56;;;7.40;100.00
23176;BME280;19910;42.652;23.332;2023-04-26T01:32:23;93661.13;;;7.37;100.00
23176;BME280;19910;42.652;23.332;2023-04-26T01:34:50;93662.59;;;7.26;100.00
23176;BME280;19910;42.652;23.332;2023-04-26T01:37:17;93669.84;;;7.34;100.00
23176;BME280;19910;42.652;23.332;2023-04-26T01:39:45;93673.47;;;7.18;100.00
23176;BME280;19910;42.652;23.332;2023-04-26T01:42:12;93674.44;;;7.13;100.00
23176;BME280;19910;42.652;23.332;2023-04-26T01:44:39;93675.63;;;7.03;100.00
23176;BME280;19910;42.652;23.332;2023-04-26T01:47:05;93682.84;;;7.11;100.00
23176;BME280;19910;42.652;23.332;2023-04-26T01:49:32;93677.47;;;7.11;100.00
23176;BME280;19910;42.652;23.332;2023-04-26T01:52:00;93674.59;;;7.17;100.00
23176;BME280;19910;42.652;23.332;2023-04-26T01:54:27;93674.19;;;7.27;100.00
23176;BME280;19910;42.652;23.332;2023-04-26T01:56:55;93667.75;;;7.19;100.00
23176;BME280;19910;42.652;23.332;2023-04-26T01:59:22;93672.06;;;7.11;100.00
23176;BME280;19910;42.652;23.332;2023-04-26T02:01:49;93662.22;;;7.16;100.00
23176;BME280;19910;42.652;23.332;2023-04-26T02:04:16;93660.66;;;7.14;100.00
23176;BME280;19910;42.652;23.332;2023-04-26T02:06:43;93656.44;;;7.26;100.00
23176;BME280;19910;42.652;23.332;2023-04-26T02:09:09;93660.88;;;7.09;100.00
23176;BME280;19910;42.652;23.332;2023-04-26T02:11:36;93659.47;;;7.03;100.00
23176;BME280;19910;42.652;23.332;2023-04-26T02:14:05;93656.31;;;7.01;100.00
23176;BME280;19910;42.652;23.332;2023-04-26T02:16:31;93659.94;;;7.05;100.00
23176;BME280;19910;42.652;23.332;2023-04-26T02:18:58;93647.19;;;7.14;100.00
23176;BME280;19910;42.652;23.332;2023-04-26T02:21:25;93653.03;;;7.17;100.00
23176;BME280;19910;42.652;23.332;2023-04-26T02:23:53;93647.13;;;7.02;100.00
23176;BME280;19910;42.652;23.332;2023-04-26T02:26:19;93656.72;;;7.12;100.00
23176;BME280;19910;42.652;23.332;2023-04-26T02:28:46;93654.63;;;7.18;100.00
23176;BME280;19910;42.652;23.332;2023-04-26T02:31:15;93658.28;;;7.13;100.00
23176;BME280;19910;42.652;23.332;2023-04-26T02:33:41;93654.38;;;7.10;100.00
23176;BME280;19910;42.652;23.332;2023-04-26T02:36:08;93655.28;;;7.14;100.00
23176;BME280;19910;42.652;23.332;2023-04-26T02:38:35;93657.22;;;7.26;100.00
23176;BME280;19910;42.652;23.332;2023-04-26T02:41:03;93663.66;;;7.34;100.00
23176;BME280;19910;42.652;23.332;2023-04-26T02:43:30;93654.00;;;7.33;100.00
23176;BME280;19910;42.652;23.332;2023-04-26T02:45:56;93658.69;;;7.24;100.00
23176;BME280;19910;42.652;23.332;2023-04-26T02:48:26;93651.69;;;7.43;100.00
23176;BME280;19910;42.652;23.332;2023-04-26T02:50:53;93641.25;;;7.42;100.00
23176;BME280;19910;42.652;23.332;2023-04-26T02:53:21;93643.03;;;7.38;100.00
23176;BME280;19910;42.652;23.332;2023-04-26T02:55:48;93634.50;;;7.36;100.00
23176;BME280;19910;42.652;23.332;2023-04-26T02:58:15;93634.72;;;7.43;100.00
23176;BME280;19910;42.652;23.332;2023-04-26T03:00:45;93632.88;;;7.56;100.00
23176;BME280;19910;42.652;23.332;2023-04-26T03:03:12;93636.28;;;7.65;100.00
23176;BME280;19910;42.652;23.332;2023-04-26T03:05:40;93639.81;;;7.90;100.00
23176;BME280;19910;42.652;23.332;2023-04-26T03:08:07;93641.63;;;8.10;100.00
23176;BME280;19910;42.652;23.332;2023-04-26T03:10:35;93641.41;;;8.27;100.00
23176;BME280;19910;42.652;23.332;2023-04-26T03:13:02;93638.03;;;8.18;100.00
23176;BME280;19910;42.652;23.332;2023-04-26T03:15:29;93632.72;;;7.97;100.00
23176;BME280;19910;42.652;23.332;2023-04-26T03:17:56;93635.75;;;7.83;100.00
23176;BME280;19910;42.652;23.332;2023-04-26T03:20:23;93638.28;;;7.68;100.00
23176;BME280;19910;42.652;23.332;2023-04-26T03:22:52;93639.84;;;7.57;100.00
23176;BME280;19910;42.652;23.332;2023-04-26T03:25:18;93635.34;;;7.61;100.00
23176;BME280;19910;42.652;23.332;2023-04-26T03:27:45;93635.50;;;7.64;100.00
23176;BME280;19910;42.652;23.332;2023-04-26T03:30:13;93639.66;;;7.74;100.00
23176;BME280;19910;42.652;23.332;2023-04-26T03:32:40;93639.69;;;7.98;100.00
23176;BME280;19910;42.652;23.332;2023-04-26T03:35:07;93635.44;;;8.21;100.00
23176;BME280;19910;42.652;23.332;2023-04-26T03:37:34;93635.34;;;8.30;100.00
23176;BME280;19910;42.652;23.332;2023-04-26T03:40:06;93644.72;;;8.33;100.00
23176;BME280;19910;42.652;23.332;2023-04-26T03:42:34;93640.75;;;8.54;100.00
23176;BME280;19910;42.652;23.332;2023-04-26T03:45:01;93640.59;;;9.00;100.00
23176;BME280;19910;42.652;23.332;2023-04-26T03:47:28;93634.59;;;9.62;100.00
23176;BME280;19910;42.652;23.332;2023-04-26T03:49:55;93633.72;;;10.17;98.85
23176;BME280;19910;42.652;23.332;2023-04-26T03:52:22;93628.50;;;10.91;93.97
23176;BME280;19910;42.652;23.332;2023-04-26T03:54:49;93624.38;;;11.93;90.12
23176;BME280;19910;42.652;23.332;2023-04-26T03:57:17;93625.78;;;12.78;83.29
23176;BME280;19910;42.652;23.332;2023-04-26T03:59:44;93615.56;;;13.55;78.85
23176;BME280;19910;42.652;23.332;2023-04-26T04:02:11;93613.44;;;13.37;76.97
23176;BME280;19910;42.652;23.332;2023-04-26T04:04:38;93632.28;;;13.23;77.50
23176;BME280;19910;42.652;23.332;2023-04-26T04:07:05;93637.25;;;13.18;77.61
23176;BME280;19910;42.652;23.332;2023-04-26T04:09:31;93637.38;;;13.02;77.40
23176;BME280;19910;42.652;23.332;2023-04-26T04:11:58;93653.22;;;12.47;81.72
23176;BME280;19910;42.652;23.332;2023-04-26T04:14:27;93654.56;;;12.34;82.71
23176;BME280;19910;42.652;23.332;2023-04-26T04:16:53;93649.50;;;12.09;83.76
23176;BME280;19910;42.652;23.332;2023-04-26T04:19:20;93647.66;;;11.94;83.89
23176;BME280;19910;42.652;23.332;2023-04-26T04:21:47;93659.50;;;11.67;85.14
23176;BME280;19910;42.652;23.332;2023-04-26T04:24:14;93650.50;;;11.24;87.06
23176;BME280;19910;42.652;23.332;2023-04-26T04:26:41;93659.19;;;11.14;87.43
23176;BME280;19910;42.652;23.332;2023-04-26T04:29:08;93657.00;;;10.85;86.64
23176;BME280;19910;42.652;23.332;2023-04-26T04:31:37;93671.53;;;10.45;89.67
23176;BME280;19910;42.652;23.332;2023-04-26T04:34:04;93676.44;;;10.24;91.80
23176;BME280;19910;42.652;23.332;2023-04-26T04:36:31;93674.88;;;10.23;93.20
23176;BME280;19910;42.652;23.332;2023-04-26T04:38:58;93674.50;;;10.40;92.58
23176;BME280;19910;42.652;23.332;2023-04-26T04:41:25;93673.97;;;11.17;93.00
23176;BME280;19910;42.652;23.332;2023-04-26T04:43:52;93672.31;;;11.47;89.50
23176;BME280;19910;42.652;23.332;2023-04-26T04:46:19;93663.59;;;11.03;89.24
23176;BME280;19910;42.652;23.332;2023-04-26T04:48:47;93653.13;;;11.21;90.59
23176;BME280;19910;42.652;23.332;2023-04-26T04:51:14;93671.06;;;11.64;87.83
23176;BME280;19910;42.652;23.332;2023-04-26T04:53:50;93667.53;;;11.79;86.09
23176;BME280;19910;42.652;23.332;2023-04-26T04:56:17;93650.38;;;11.56;85.41
23176;BME280;19910;42.652;23.332;2023-04-26T04:58:44;93673.13;;;12.09;86.02
23176;BME280;19910;42.652;23.332;2023-04-26T05:01:12;93685.31;;;12.19;83.59
23176;BME280;19910;42.652;23.332;2023-04-26T05:03:39;93647.66;;;11.94;83.64
23176;BME280;19910;42.652;23.332;2023-04-26T05:06:10;93648.53;;;11.79;86.21
23176;BME280;19910;42.652;23.332;2023-04-26T05:08:37;93661.63;;;12.38;83.95
23176;BME280;19910;42.652;23.332;2023-04-26T05:11:04;93662.53;;;12.46;81.42
23176;BME280;19910;42.652;23.332;2023-04-26T05:13:30;93658.81;;;12.80;82.37
23176;BME280;19910;42.652;23.332;2023-04-26T05:15:57;93653.63;;;13.21;78.57
23176;BME280;19910;42.652;23.332;2023-04-26T05:18:24;93650.34;;;13.12;79.73
23176;BME280;19910;42.652;23.332;2023-04-26T05:20:51;93666.19;;;13.33;77.68
23176;BME280;19910;42.652;23.332;2023-04-26T05:23:19;93652.34;;;13.15;76.86
23176;BME280;19910;42.652;23.332;2023-04-26T05:25:46;93666.09;;;13.85;77.47
23176;BME280;19910;42.652;23.332;2023-04-26T05:28:13;93666.81;;;14.53;74.60
23176;BME280;19910;42.652;23.332;2023-04-26T05:30:40;93667.47;;;15.42;72.08
23176;BME280;19910;42.652;23.332;2023-04-26T05:33:06;93661.25;;;15.48;71.07
23176;BME280;19910;42.652;23.332;2023-04-26T05:35:34;93665.97;;;15.51;70.22
23176;BME280;19910;42.652;23.332;2023-04-26T05:38:00;93663.63;;;15.53;68.46
23176;BME280;19910;42.652;23.332;2023-04-26T05:40:29;93670.44;;;15.19;72.68
23176;BME280;19910;42.652;23.332;2023-04-26T05:42:56;93671.69;;;15.32;69.77
23176;BME280;19910;42.652;23.332;2023-04-26T05:45:23;93672.09;;;16.10;68.94
23176;BME280;19910;42.652;23.332;2023-04-26T05:47:50;93668.28;;;16.47;67.85
23176;BME280;19910;42.652;23.332;2023-04-26T05:50:17;93674.97;;;16.67;64.75
23176;BME280;19910;42.652;23.332;2023-04-26T05:52:44;93675.75;;;16.71;64.08
23176;BME280;19910;42.652;23.332;2023-04-26T05:55:10;93678.03;;;16.48;65.61
23176;BME280;19910;42.652;23.332;2023-04-26T05:57:39;93671.00;;;16.54;65.53
23176;BME280;19910;42.652;23.332;2023-04-26T06:00:07;93667.69;;;15.88;64.32
23176;BME280;19910;42.652;23.332;2023-04-26T06:02:35;93662.66;;;15.21;68.18
23176;BME280;19910;42.652;23.332;2023-04-26T06:05:02;93680.44;;;15.55;66.91
23176;BME280;19910;42.652;23.332;2023-04-26T06:07:30;93668.59;;;16.27;63.26
23176;BME280;19910;42.652;23.332;2023-04-26T06:09:59;93672.19;;;17.38;62.90
23176;BME280;19910;42.652;23.332;2023-04-26T06:12:26;93661.19;;;18.57;58.05
23176;BME280;19910;42.652;23.332;2023-04-26T06:14:55;93662.47;;;18.42;57.49
23176;BME280;19910;42.652;23.332;2023-04-26T06:17:21;93667.78;;;16.06;62.11
23176;BME280;19910;42.652;23.332;2023-04-26T06:19:49;93674.41;;;15.32;63.44
23176;BME280;19910;42.652;23.332;2023-04-26T06:22:16;93672.16;;;15.41;63.24
23176;BME280;19910;42.652;23.332;2023-04-26T06:24:43;93672.69;;;15.03;64.89
23176;BME280;19910;42.652;23.332;2023-04-26T06:27:10;93673.91;;;15.78;63.08
23176;BME280;19910;42.652;23.332;2023-04-26T06:29:36;93675.59;;;16.14;62.39
23176;BME280;19910;42.652;23.332;2023-04-26T06:32:05;93669.72;;;14.74;62.99
23176;BME280;19910;42.652;23.332;2023-04-26T06:34:32;93674.25;;;13.56;69.27
23176;BME280;19910;42.652;23.332;2023-04-26T06:36:58;93696.44;;;12.78;69.13
23176;BME280;19910;42.652;23.332;2023-04-26T06:39:25;93657.38;;;11.95;68.80
23176;BME280;19910;42.652;23.332;2023-04-26T06:41:52;93701.00;;;12.06;69.84
23176;BME280;19910;42.652;23.332;2023-04-26T06:44:19;93689.06;;;11.72;69.76
23176;BME280;19910;42.652;23.332;2023-04-26T06:46:46;93702.56;;;11.68;71.23
23176;BME280;19910;42.652;23.332;2023-04-26T06:49:15;93694.22;;;11.77;70.95
23176;BME280;19910;42.652;23.332;2023-04-26T06:51:42;93695.66;;;12.32;69.85
23176;BME280;19910;42.652;23.332;2023-04-26T06:54:10;93677.16;;;12.87;68.08
23176;BME280;19910;42.652;23.332;2023-04-26T06:56:37;93694.19;;;13.33;65.95
23176;BME280;19910;42.652;23.332;2023-04-26T06:59:05;93690.31;;;13.34;67.09
23176;BME280;19910;42.652;23.332;2023-04-26T07:01:33;93691.84;;;13.95;65.06
23176;BME280;19910;42.652;23.332;2023-04-26T07:04:00;93674.03;;;14.01;63.43
23176;BME280;19910;42.652;23.332;2023-04-26T07:06:30;93708.97;;;12.87;67.56
23176;BME280;19910;42.652;23.332;2023-04-26T07:08:57;93703.22;;;12.42;69.35
23176;BME280;19910;42.652;23.332;2023-04-26T07:11:24;93706.72;;;12.43;69.44
23176;BME280;19910;42.652;23.332;2023-04-26T07:13:50;93684.19;;;12.20;68.93
23176;BME280;19910;42.652;23.332;2023-04-26T07:16:17;93699.13;;;12.52;68.06
23176;BME280;19910;42.652;23.332;2023-04-26T07:18:44;93689.59;;;12.88;65.53
23176;BME280;19910;42.652;23.332;2023-04-26T07:21:12;93699.38;;;13.15;65.92
23176;BME280;19910;42.652;23.332;2023-04-26T07:23:41;93682.28;;;13.75;64.07
23176;BME280;19910;42.652;23.332;2023-04-26T07:26:09;93679.38;;;14.28;60.23
23176;BME280;19910;42.652;23.332;2023-04-26T07:28:36;93697.41;;;14.39;57.69
23176;BME280;19910;42.652;23.332;2023-04-26T07:31:03;93690.91;;;14.51;59.21
23176;BME280;19910;42.652;23.332;2023-04-26T07:33:30;93701.28;;;14.01;57.46
23176;BME280;19910;42.652;23.332;2023-04-26T07:35:58;93701.47;;;13.56;57.61
23176;BME280;19910;42.652;23.332;2023-04-26T07:38:26;93685.53;;;13.24;58.34
23176;BME280;19910;42.652;23.332;2023-04-26T07:40:54;93707.31;;;12.78;60.39
23176;BME280;19910;42.652;23.332;2023-04-26T07:43:21;93703.06;;;13.57;59.53
23176;BME280;19910;42.652;23.332;2023-04-26T07:45:48;93722.22;;;13.37;59.39
23176;BME280;19910;42.652;23.332;2023-04-26T07:48:16;93703.75;;;12.97;58.94
23176;BME280;19910;42.652;23.332;2023-04-26T07:50:42;93720.44;;;13.22;59.79
23176;BME280;19910;42.652;23.332;2023-04-26T07:53:10;93721.56;;;12.95;60.89
23176;BME280;19910;42.652;23.332;2023-04-26T07:55:36;93709.13;;;13.46;60.58
23176;BME280;19910;42.652;23.332;2023-04-26T07:58:05;93708.25;;;12.90;59.43
23176;BME280;19910;42.652;23.332;2023-04-26T08:00:32;93716.69;;;13.30;59.96
23176;BME280;19910;42.652;23.332;2023-04-26T08:03:02;93709.03;;;13.39;59.53
23176;BME280;19910;42.652;23.332;2023-04-26T08:05:29;93717.25;;;13.73;58.94
23176;BME280;19910;42.652;23.332;2023-04-26T08:07:56;93716.00;;;13.67;58.23
23176;BME280;19910;42.652;23.332;2023-04-26T08:10:26;93724.88;;;13.90;58.82
23176;BME280;19910;42.652;23.332;2023-04-26T08:12:53;93705.56;;;14.02;57.01
23176;BME280;19910;42.652;23.332;2023-04-26T08:15:23;93698.44;;;13.61;58.37
23176;BME280;19910;42.652;23.332;2023-04-26T08:17:50;93739.13;;;13.01;59.24
23176;BME280;19910;42.652;23.332;2023-04-26T08:20:17;93732.31;;;13.14;60.46
23176;BME280;19910;42.652;23.332;2023-04-26T08:22:45;93729.84;;;13.28;60.11
23176;BME280;19910;42.652;23.332;2023-04-26T08:25:12;93733.34;;;13.55;60.25
23176;BME280;19910;42.652;23.332;2023-04-26T08:27:41;93728.59;;;13.48;59.19
23176;BME280;19910;42.652;23.332;2023-04-26T08:30:09;93702.13;;;13.45;60.09
23176;BME280;19910;42.652;23.332;2023-04-26T08:32:38;93720.59;;;13.89;58.55
23176;BME280;19910;42.652;23.332;2023-04-26T08:35:05;93722.03;;;14.13;59.21
23176;BME280;19910;42.652;23.332;2023-04-26T08:37:33;93715.84;;;14.53;58.48
23176;BME280;19910;42.652;23.332;2023-04-26T08:40:02;93715.13;;;13.89;58.69
23176;BME280;19910;42.652;23.332;2023-04-26T08:42:30;93723.16;;;13.48;60.10
23176;BME280;19910;42.652;23.332;2023-04-26T08:45:00;93726.91;;;13.40;59.30
23176;BME280;19910;42.652;23.332;2023-04-26T08:47:28;93723.78;;;13.98;59.08
23176;BME280;19910;42.652;23.332;2023-04-26T08:50:03;93730.19;;;13.49;59.10
23176;BME280;19910;42.652;23.332;2023-04-26T08:52:31;93739.44;;;13.45;59.08
23176;BME280;19910;42.652;23.332;2023-04-26T08:54:59;93731.28;;;13.75;58.38
23176;BME280;19910;42.652;23.332;2023-04-26T08:57:26;93705.53;;;13.69;57.03
23176;BME280;19910;42.652;23.332;2023-04-26T08:59:55;93727.31;;;13.69;58.40
23176;BME280;19910;42.652;23.332;2023-04-26T09:02:23;93728.06;;;13.66;58.22
23176;BME280;19910;42.652;23.332;2023-04-26T09:04:50;93710.84;;;13.88;57.38
23176;BME280;19910;42.652;23.332;2023-04-26T09:07:21;93741.75;;;13.73;58.48
23176;BME280;19910;42.652;23.332;2023-04-26T09:09:49;93740.84;;;13.62;58.75
23176;BME280;19910;42.652;23.332;2023-04-26T09:12:17;93733.03;;;13.90;57.98
23176;BME280;19910;42.652;23.332;2023-04-26T09:14:46;93743.94;;;13.90;58.33
23176;BME280;19910;42.652;23.332;2023-04-26T09:17:27;93727.41;;;14.06;56.87
23176;BME280;19910;42.652;23.332;2023-04-26T09:19:55;93743.47;;;13.84;57.20
23176;BME280;19910;42.652;23.332;2023-04-26T09:22:30;93742.25;;;13.82;57.33
23176;BME280;19910;42.652;23.332;2023-04-26T09:24:58;93746.78;;;13.71;57.83
23176;BME280;19910;42.652;23.332;2023-04-26T09:27:32;93749.69;;;13.85;57.56
23176;BME280;19910;42.652;23.332;2023-04-26T09:30:02;93748.41;;;13.75;57.88
23176;BME280;19910;42.652;23.332;2023-04-26T09:32:43;93739.16;;;13.80;57.45
23176;BME280;19910;42.652;23.332;2023-04-26T09:35:20;93730.59;;;14.45;55.41
23176;BME280;19910;42.652;23.332;2023-04-26T09:37:52;93739.38;;;14.68;54.64
23176;BME280;19910;42.652;23.332;2023-04-26T09:40:21;93721.81;;;14.29;55.74
23176;BME280;19910;42.652;23.332;2023-04-26T09:42:58;93734.28;;;14.30;56.53
23176;BME280;19910;42.652;23.332;2023-04-26T09:45:26;93722.28;;;14.71;55.13
23176;BME280;19910;42.652;23.332;2023-04-26T09:47:53;93722.19;;;14.64;54.33
23176;BME280;19910;42.652;23.332;2023-04-26T09:50:27;93736.81;;;14.45;55.53
23176;BME280;19910;42.652;23.332;2023-04-26T09:52:56;93716.47;;;14.39;54.96
23176;BME280;19910;42.652;23.332;2023-04-26T09:55:27;93708.44;;;14.50;55.15
23176;BME280;19910;42.652;23.332;2023-04-26T09:57:55;93721.88;;;15.20;53.71
23176;BME280;19910;42.652;23.332;2023-04-26T10:00:23;93710.75;;;15.47;53.26
23176;BME280;19910;42.652;23.332;2023-04-26T10:02:51;93717.19;;;15.17;52.86
23176;BME280;19910;42.652;23.332;2023-04-26T10:05:19;93715.06;;;15.48;53.34
23176;BME280;19910;42.652;23.332;2023-04-26T10:07:47;93711.31;;;15.67;52.34
23176;BME280;19910;42.652;23.332;2023-04-26T10:10:17;93712.88;;;15.68;51.43
23176;BME280;19910;42.652;23.332;2023-04-26T10:12:44;93709.06;;;15.86;51.84
23176;BME280;19910;42.652;23.332;2023-04-26T10:15:12;93708.03;;;15.43;52.38
23176;BME280;19910;42.652;23.332;2023-04-26T10:17:39;93689.19;;;15.24;50.35
23176;BME280;19910;42.652;23.332;2023-04-26T10:20:11;93707.44;;;15.71;51.10
23176;BME280;19910;42.652;23.332;2023-04-26T10:22:42;93699.50;;;15.52;51.54
23176;BME280;19910;42.652;23.332;2023-04-26T10:25:10;93704.25;;;15.07;50.10
23176;BME280;19910;42.652;23.332;2023-04-26T10:27:49;93710.88;;;15.03;50.38
23176;BME280;19910;42.652;23.332;2023-04-26T10:30:19;93693.56;;;14.84;50.84
23176;BME280;19910;42.652;23.332;2023-04-26T10:33:10;93705.78;;;14.57;50.98
23176;BME280;19910;42.652;23.332;2023-04-26T10:36:01;93709.72;;;14.60;50.71
23176;BME280;19910;42.652;23.332;2023-04-26T10:38:28;93692.69;;;14.36;51.49
23176;BME280;19910;42.652;23.332;2023-04-26T10:41:31;93704.50;;;14.91;50.43
23176;BME280;19910;42.652;23.332;2023-04-26T10:44:36;93703.53;;;15.76;50.52
23176;BME280;19910;42.652;23.332;2023-04-26T10:47:19;93701.16;;;15.63;49.32
23176;BME280;19910;42.652;23.332;2023-04-26T10:49:46;93694.84;;;14.53;49.73
23176;BME280;19910;42.652;23.332;2023-04-26T10:52:14;93703.66;;;14.80;49.96
23176;BME280;19910;42.652;23.332;2023-04-26T10:54:46;93694.81;;;14.50;50.33
23176;BME280;19910;42.652;23.332;2023-04-26T10:57:13;93697.72;;;15.19;49.84
23176;BME280;19910;42.652;23.332;2023-04-26T11:00:17;93686.31;;;15.57;49.34
23176;BME280;19910;42.652;23.332;2023-04-26T11:03:06;93703.06;;;15.01;48.27
23176;BME280;19910;42.652;23.332;2023-04-26T11:05:39;93696.25;;;15.32;49.19
23176;BME280;19910;42.652;23.332;2023-04-26T11:08:14;93698.16;;;15.24;49.13
23176;BME280;19910;42.652;23.332;2023-04-26T11:10:41;93694.84;;;14.98;47.82
23176;BME280;19910;42.652;23.332;2023-04-26T11:13:08;93686.91;;;15.29;47.70
23176;BME280;19910;42.652;23.332;2023-04-26T11:15:36;93690.03;;;15.35;46.81
23176;BME280;19910;42.652;23.332;2023-04-26T11:18:03;93696.00;;;14.97;48.00
23176;BME280;19910;42.652;23.332;2023-04-26T11:20:31;93699.19;;;14.21;48.20
23176;BME280;19910;42.652;23.332;2023-04-26T11:22:58;93686.78;;;14.27;49.26
23176;BME280;19910;42.652;23.332;2023-04-26T11:25:26;93706.50;;;14.94;48.49
23176;BME280;19910;42.652;23.332;2023-04-26T11:27:58;93702.00;;;14.69;47.93
23176;BME280;19910;42.652;23.332;2023-04-26T11:30:27;93697.03;;;14.81;46.57
23176;BME280;19910;42.652;23.332;2023-04-26T11:32:56;93692.25;;;15.15;46.94
23176;BME280;19910;42.652;23.332;2023-04-26T11:35:23;93700.38;;;15.08;47.14
23176;BME280;19910;42.652;23.332;2023-04-26T11:37:50;93690.81;;;15.36;47.63
23176;BME280;19910;42.652;23.332;2023-04-26T11:40:18;93710.19;;;15.16;46.25
23176;BME280;19910;42.652;23.332;2023-04-26T11:42:45;93699.84;;;14.88;47.61
23176;BME280;19910;42.652;23.332;2023-04-26T11:45:14;93693.78;;;14.62;45.92
23176;BME280;19910;42.652;23.332;2023-04-26T11:47:43;93710.09;;;15.06;45.97
23176;BME280;19910;42.652;23.332;2023-04-26T11:50:11;93711.00;;;15.24;45.52
23176;BME280;19910;42.652;23.332;2023-04-26T11:52:39;93710.94;;;15.13;46.74
23176;BME280;19910;42.652;23.332;2023-04-26T11:55:09;93704.84;;;15.31;47.15
23176;BME280;19910;42.652;23.332;2023-04-26T11:57:37;93708.78;;;15.40;46.75
23176;BME280;19910;42.652;23.332;2023-04-26T12:00:11;93697.59;;;15.05;46.17
23176;BME280;19910;42.652;23.332;2023-04-26T12:02:42;93695.25;;;15.00;46.00
23176;BME280;19910;42.652;23.332;2023-04-26T12:05:19;93688.47;;;15.31;45.74
23176;BME280;19910;42.652;23.332;2023-04-26T12:07:49;93699.88;;;14.96;46.08
23176;BME280;19910;42.652;23.332;2023-04-26T12:10:18;93680.19;;;15.20;46.96
23176;BME280;19910;42.652;23.332;2023-04-26T12:12:48;93679.38;;;15.78;47.18
23176;BME280;19910;42.652;23.332;2023-04-26T12:15:23;93665.19;;;15.54;46.25
23176;BME280;19910;42.652;23.332;2023-04-26T12:17:51;93687.63;;;15.85;46.59
23176;BME280;19910;42.652;23.332;2023-04-26T12:20:25;93696.69;;;14.86;47.34
23176;BME280;19910;42.652;23.332;2023-04-26T12:22:59;93697.56;;;14.98;48.00
23176;BME280;19910;42.652;23.332;2023-04-26T12:25:26;93678.06;;;14.96;48.01
23176;BME280;19910;42.652;23.332;2023-04-26T12:27:54;93683.69;;;15.17;46.84
23176;BME280;19910;42.652;23.332;2023-04-26T12:30:25;93678.97;;;15.10;46.81
23176;BME280;19910;42.652;23.332;2023-04-26T12:32:56;93669.75;;;14.78;47.02
23176;BME280;19910;42.652;23.332;2023-04-26T12:35:24;93677.34;;;15.06;47.66
23176;BME280;19910;42.652;23.332;2023-04-26T12:37:51;93686.31;;;15.03;47.09
23176;BME280;19910;42.652;23.332;2023-04-26T12:40:21;93697.28;;;14.62;46.52
23176;BME280;19910;42.652;23.332;2023-04-26T12:42:54;93689.13;;;14.29;47.45
23176;BME280;19910;42.652;23.332;2023-04-26T12:45:22;93685.34;;;14.03;47.92
23176;BME280;19910;42.652;23.332;2023-04-26T12:47:49;93685.56;;;14.24;47.68
23176;BME280;19910;42.652;23.332;2023-04-26T12:50:18;93687.00;;;14.45;48.12
23176;BME280;19910;42.652;23.332;2023-04-26T12:52:50;93678.53;;;14.57;49.25
23176;BME280;19910;42.652;23.332;2023-04-26T12:55:18;93672.38;;;14.67;49.08
23176;BME280;19910;42.652;23.332;2023-04-26T12:57:45;93673.78;;;14.47;49.58